Time;durP1;ratioP1;P1;durP2;ratioP2;P2;SDS_P1;SDS_P2;PMS_P1;PMS_P2;Temp;Humidity;BMP_temperature;BMP_pressure;BME280_temperature;BME280_humidity;BME280_pressure;Samples;Min_cycle;Max_cycle;Signal;HPM_P1;HPM_P2
2022/11/02 00:01:28;;;;;;;12.65;3.28;;;;;;;17.67;68.41;101391.03;4978261;28;20065;-72
2022/11/02 00:03:56;;;;;;;13.07;3.92;;;;;;;17.48;68.87;101395.50;4994930;28;20054;-71
2022/11/02 00:06:23;;;;;;;13.98;3.47;;;;;;;17.51;69.07;101395.63;4994478;28;20054;-72
2022/11/02 00:08:50;;;;;;;12.38;3.33;;;;;;;17.41;68.81;101400.78;4996759;28;20050;-72
2022/11/02 00:11:18;;;;;;;11.40;2.72;;;;;;;17.39;69.55;101403.09;4994888;28;20077;-72
2022/11/02 00:13:45;;;;;;;16.83;2.95;;;;;;;17.49;68.93;101397.94;4991364;28;20052;-72
2022/11/02 00:16:14;;;;;;;11.27;3.10;;;;;;;17.49;68.84;101400.72;4993124;28;20065;-72
2022/11/02 00:18:44;;;;;;;13.25;3.13;;;;;;;17.56;68.45;101398.19;4994509;28;20073;-72
2022/11/02 00:21:11;;;;;;;12.73;2.70;;;;;;;17.41;68.55;101396.03;4994123;28;20050;-72
2022/11/02 00:23:40;;;;;;;13.32;3.03;;;;;;;17.44;68.64;101405.66;4995234;28;20053;-72
2022/11/02 00:26:08;;;;;;;11.38;2.45;;;;;;;17.46;69.16;101412.56;4990717;28;20050;-71
2022/11/02 00:28:35;;;;;;;14.98;2.85;;;;;;;17.42;68.84;101413.53;4992860;28;20058;-71
2022/11/02 00:31:02;;;;;;;15.23;3.15;;;;;;;17.58;69.03;101411.78;4976843;28;20067;-71
2022/11/02 00:33:30;;;;;;;13.00;2.70;;;;;;;17.52;67.85;101419.53;4974621;28;20050;-71
2022/11/02 00:35:57;;;;;;;12.63;3.17;;;;;;;17.41;68.75;101421.09;4995132;28;20051;-70
2022/11/02 00:38:25;;;;;;;11.57;3.05;;;;;;;17.44;68.10;101414.84;4992770;28;20046;-70
2022/11/02 00:40:52;;;;;;;11.40;3.15;;;;;;;17.46;67.98;101432.06;4998187;28;20054;-71
2022/11/02 00:43:20;;;;;;;13.75;2.70;;;;;;;17.52;67.67;101430.66;4993460;28;20046;-70
2022/11/02 00:45:47;;;;;;;12.38;3.03;;;;;;;17.43;68.42;101431.91;4993918;28;20077;-70
2022/11/02 00:48:16;;;;;;;10.63;2.83;;;;;;;17.43;68.38;101426.31;4980469;28;20050;-70
2022/11/02 00:50:43;;;;;;;13.55;2.75;;;;;;;17.30;67.77;101438.56;4997320;28;20058;-70
2022/11/02 00:53:10;;;;;;;10.77;2.78;;;;;;;17.29;68.74;101442.50;4992143;28;20046;-70
2022/11/02 00:55:43;;;;;;;13.95;2.78;;;;;;;17.22;68.69;101447.81;4995936;28;20050;-72
2022/11/02 00:58:11;;;;;;;10.90;2.22;;;;;;;17.31;68.23;101441.00;4997053;28;20054;-72
2022/11/02 01:00:38;;;;;;;12.07;2.45;;;;;;;17.37;68.19;101444.38;4995273;28;20066;-72
2022/11/02 01:03:05;;;;;;;12.43;2.90;;;;;;;17.50;67.52;101451.69;4997716;28;20054;-71
2022/11/02 01:05:32;;;;;;;10.70;2.85;;;;;;;17.56;67.49;101456.69;4990783;28;20383;-71
2022/11/02 01:08:00;;;;;;;11.23;2.45;;;;;;;17.37;67.78;101458.31;4996812;28;20492;-71
2022/11/02 01:10:28;;;;;;;12.95;3.20;;;;;;;17.32;67.43;101456.56;4996054;28;20054;-71
2022/11/02 01:12:55;;;;;;;11.32;2.50;;;;;;;17.34;67.43;101467.34;4997040;28;20046;-72
2022/11/02 01:15:22;;;;;;;11.00;2.40;;;;;;;17.12;67.67;101459.34;4996919;28;20051;-71
2022/11/02 01:17:50;;;;;;;12.02;3.00;;;;;;;17.31;67.51;101454.13;4996506;28;20054;-71
2022/11/02 01:20:17;;;;;;;12.38;2.45;;;;;;;17.06;67.40;101453.19;4989076;28;20058;-71
2022/11/02 01:22:45;;;;;;;11.80;2.85;;;;;;;17.06;68.42;101458.75;4996579;28;20426;-71
2022/11/02 01:25:12;;;;;;;11.60;2.15;;;;;;;17.29;68.31;101462.81;5004411;28;20058;-71
2022/11/02 01:27:39;;;;;;;12.23;2.53;;;;;;;17.27;69.13;101467.91;4978892;28;20070;-71
2022/11/02 01:30:07;;;;;;;12.13;2.65;;;;;;;17.25;67.40;101461.88;4997451;28;20058;-71
2022/11/02 01:32:35;;;;;;;13.38;3.30;;;;;;;17.15;69.15;101467.84;4995838;28;20065;-71
2022/11/02 01:35:03;;;;;;;14.55;3.00;;;;;;;17.33;68.60;101457.38;4997380;28;20062;-71
2022/11/02 01:37:30;;;;;;;19.88;3.30;;;;;;;17.21;68.06;101466.47;4995832;28;20510;-71
2022/11/02 01:39:57;;;;;;;15.43;2.80;;;;;;;17.28;68.42;101463.13;4997754;28;20061;-71
2022/11/02 01:42:27;;;;;;;13.55;2.45;;;;;;;17.22;68.04;101467.31;5005039;28;20417;-71
2022/11/02 01:44:55;;;;;;;10.35;2.47;;;;;;;17.15;68.49;101467.84;4995625;28;20149;-71
2022/11/02 01:47:34;;;;;;;12.45;2.42;;;;;;;17.15;68.29;101470.63;4979114;28;20525;-72
2022/11/02 01:50:22;;;;;;;13.60;2.77;;;;;;;16.88;67.93;101473.13;5012841;28;20061;-71
2022/11/02 01:52:51;;;;;;;11.20;3.20;;;;;;;16.98;69.61;101478.28;4976372;28;20066;-71
2022/11/02 01:55:21;;;;;;;16.58;2.92;;;;;;;16.93;68.82;101470.94;4992606;28;20055;-71
2022/11/02 01:57:57;;;;;;;13.52;3.17;;;;;;;16.70;67.33;101487.13;4995210;28;20065;-72
2022/11/02 02:00:24;;;;;;;18.40;3.42;;;;;;;16.71;68.71;101491.53;5011051;28;20054;-70
2022/11/02 02:03:05;;;;;;;12.43;2.53;;;;;;;16.85;69.70;101494.91;4994964;28;20532;-71
2022/11/02 02:05:35;;;;;;;14.48;2.83;;;;;;;16.61;68.75;101494.72;4994597;28;20046;-71
2022/11/02 02:08:03;;;;;;;14.05;2.72;;;;;;;16.63;70.45;101495.16;5011883;28;20065;-71
2022/11/02 02:10:31;;;;;;;16.48;2.70;;;;;;;16.79;69.34;101500.97;4996441;28;20062;-71
2022/11/02 02:12:58;;;;;;;14.38;2.75;;;;;;;16.88;69.49;101493.41;5010725;28;20540;-71
2022/11/02 02:15:37;;;;;;;15.98;2.80;;;;;;;16.92;69.33;101496.31;4995015;28;20061;-71
2022/11/02 02:18:18;;;;;;;13.23;2.58;;;;;;;16.95;68.63;101504.81;4979496;28;20065;-71
2022/11/02 02:21:03;;;;;;;15.57;2.47;;;;;;;17.11;69.11;101505.84;4978628;28;20513;-71
2022/11/02 02:23:37;;;;;;;19.55;3.40;;;;;;;17.01;68.29;101511.84;4996854;28;20042;-62
2022/11/02 02:26:13;;;;;;;10.82;2.47;;;;;;;17.07;69.46;101504.91;4993575;28;20054;-62
2022/11/02 02:28:48;;;;;;;16.75;3.13;;;;;;;17.05;68.44;101509.97;4971861;28;20073;-63
2022/11/02 02:31:20;;;;;;;15.45;2.80;;;;;;;16.86;66.96;101515.19;4988597;28;20433;-62
2022/11/02 02:34:07;;;;;;;13.63;2.65;;;;;;;16.96;68.77;101517.59;4976804;28;20479;-62
2022/11/02 02:37:05;;;;;;;15.73;3.03;;;;;;;16.86;68.89;101521.56;4981288;28;20058;-62
2022/11/02 02:40:05;;;;;;;12.32;2.65;;;;;;;16.78;68.71;101528.00;4975441;28;20047;-62
2022/11/02 02:42:44;;;;;;;11.00;2.50;;;;;;;16.83;68.69;101535.34;4977827;28;20062;-62
2022/11/02 02:45:16;;;;;;;11.23;2.25;;;;;;;16.88;69.01;101538.75;4976144;28;20054;-62
2022/11/02 02:48:06;;;;;;;10.77;2.20;;;;;;;16.67;68.54;101529.53;5009838;28;20058;-62
2022/11/02 02:50:38;;;;;;;14.90;2.45;;;;;;;16.90;69.72;101538.41;4977877;28;20046;-62
2022/11/02 02:53:06;;;;;;;18.33;2.83;;;;;;;16.84;68.54;101539.78;4979549;28;20073;-62
2022/11/02 02:55:39;;;;;;;9.90;2.63;;;;;;;16.63;69.76;101536.91;4994968;28;20603;-62
2022/11/02 02:58:12;;;;;;;12.15;2.42;;;;;;;16.70;70.15;101536.41;4994769;28;20053;-62
2022/11/02 03:00:40;;;;;;;14.38;3.35;;;;;;;16.71;68.75;101538.84;4993910;28;20046;-63
2022/11/02 03:03:11;;;;;;;17.88;3.10;;;;;;;16.71;69.80;101535.25;4994595;28;20627;-62
2022/11/02 03:05:38;;;;;;;13.75;2.95;;;;;;;16.89;69.54;101536.78;4984922;28;20050;-63
2022/11/02 03:08:14;;;;;;;15.48;3.08;;;;;;;16.89;68.92;101543.16;4994226;28;20050;-63
2022/11/02 03:11:07;;;;;;;11.10;2.45;;;;;;;16.66;69.39;101543.78;4993998;28;20042;-63
2022/11/02 03:14:06;;;;;;;16.05;2.85;;;;;;;16.75;70.10;101550.13;4994434;28;20050;-63
2022/11/02 03:17:00;;;;;;;21.33;3.28;;;;;;;16.47;69.13;101554.47;5009633;28;20061;-63
2022/11/02 03:19:46;;;;;;;22.35;4.05;;;;;;;16.70;69.07;101551.09;4995556;28;20076;-63
2022/11/02 03:22:17;;;;;;;15.50;2.78;;;;;;;16.36;70.14;101556.78;4983221;28;20054;-63
2022/11/02 03:24:47;;;;;;;16.20;3.42;;;;;;;16.46;70.12;101555.59;4993012;28;20054;-63
2022/11/02 03:27:14;;;;;;;16.57;3.03;;;;;;;16.13;71.04;101562.88;4974209;28;20054;-62
2022/11/02 03:29:59;;;;;;;15.88;2.92;;;;;;;15.98;72.29;101567.00;4994385;28;20058;-64
2022/11/02 03:32:38;;;;;;;18.17;3.00;;;;;;;16.00;71.64;101563.88;4977593;28;20061;-63
2022/11/02 03:35:22;;;;;;;14.90;2.90;;;;;;;16.20;72.63;101583.47;4978020;28;20065;-63
2022/11/02 03:37:55;;;;;;;24.58;3.15;;;;;;;16.43;71.31;101584.88;4974349;28;20051;-62
2022/11/02 03:40:26;;;;;;;18.45;2.92;;;;;;;16.14;71.12;101587.59;4958397;28;20059;-62
2022/11/02 03:42:55;;;;;;;22.27;3.58;;;;;;;15.96;72.30;101590.69;4973747;28;20082;-63
2022/11/02 03:45:27;;;;;;;20.77;3.50;;;;;;;15.78;73.66;101589.88;4977390;28;20050;-62
2022/11/02 03:47:59;;;;;;;18.30;3.22;;;;;;;15.95;72.83;101597.41;4976812;28;20051;-62
2022/11/02 03:50:26;;;;;;;15.98;3.50;;;;;;;15.88;72.79;101602.63;4994965;28;20054;-63
2022/11/02 03:53:03;;;;;;;16.90;3.42;;;;;;;16.00;72.60;101603.63;4994285;28;20058;-62
2022/11/02 03:55:35;;;;;;;11.75;2.60;;;;;;;16.06;72.52;101610.63;4993937;28;20058;-63
2022/11/02 03:58:03;;;;;;;14.50;3.08;;;;;;;16.27;71.49;101611.59;4977689;28;20054;-63
2022/11/02 04:00:33;;;;;;;16.63;3.20;;;;;;;16.35;71.30;101616.31;4993232;28;20073;-62
2022/11/02 04:03:06;;;;;;;13.07;2.97;;;;;;;16.22;71.18;101622.06;5009736;28;20414;-62
2022/11/02 04:05:38;;;;;;;11.88;3.65;;;;;;;16.43;71.63;101623.00;4993956;28;20065;-63
2022/11/02 04:08:23;;;;;;;15.98;3.03;;;;;;;16.52;70.80;101629.41;4993541;28;20061;-63
2022/11/02 04:16:31;;;;;;;15.45;3.25;;;;;;;16.39;70.60;101636.75;4992574;28;20063;-62
2022/11/02 04:27:22;;;;;;;23.35;3.30;;;;;;;16.35;70.31;101651.66;5000604;28;20066;-62
2022/11/02 04:29:51;;;;;;;21.10;3.83;;;;;;;16.16;71.23;101651.19;4978669;28;20050;-64
2022/11/02 04:33:31;;;;;;;14.43;2.97;;;;;;;16.16;71.82;101649.19;4997526;28;20050;-62
2022/11/02 04:35:10;;;;;;;18.95;3.28;;;;;;;16.35;70.68;101655.22;4996358;28;20076;-62
2022/11/02 04:40:29;;;;;;;19.75;3.53;;;;;;;16.32;69.70;101650.34;4997048;28;20061;-63
2022/11/02 04:42:57;;;;;;;20.05;3.47;;;;;;;16.40;70.56;101655.09;4981114;28;20050;-62
2022/11/02 04:45:25;;;;;;;19.63;3.88;;;;;;;16.33;70.92;101662.28;4996208;28;20050;-62
2022/11/02 04:47:59;;;;;;;17.88;3.40;;;;;;;16.31;69.80;101668.16;4964206;28;20053;-63
2022/11/02 04:50:27;;;;;;;18.35;2.90;;;;;;;16.28;70.39;101674.41;4996373;28;20071;-62
2022/11/02 04:52:59;;;;;;;18.35;3.28;;;;;;;16.31;69.67;101662.63;4993887;28;20058;-63
2022/11/02 04:55:28;;;;;;;15.95;3.03;;;;;;;16.39;69.82;101672.06;4999388;28;20501;-63
2022/11/02 04:57:57;;;;;;;17.98;3.05;;;;;;;16.31;69.12;101679.28;5016146;28;20512;-63
2022/11/02 05:00:24;;;;;;;14.20;2.63;;;;;;;16.32;70.32;101685.69;5024124;28;20046;-62
2022/11/02 05:02:52;;;;;;;14.00;3.13;;;;;;;16.32;69.82;101685.69;5002924;28;20052;-62
2022/11/02 05:05:22;;;;;;;18.50;3.50;;;;;;;16.27;70.31;101688.59;4998207;28;20520;-63
2022/11/02 05:07:51;;;;;;;18.00;3.42;;;;;;;16.24;69.53;101692.88;5010896;28;20526;-62
2022/11/02 05:10:18;;;;;;;15.77;3.53;;;;;;;16.21;69.76;101696.31;5017352;28;20046;-62
2022/11/02 05:12:47;;;;;;;16.08;3.22;;;;;;;16.33;70.31;101692.88;4999567;28;20057;-64
2022/11/02 05:15:15;;;;;;;21.58;4.40;;;;;;;16.21;69.56;101692.72;5015756;28;20073;-63
2022/11/02 05:17:42;;;;;;;15.30;3.15;;;;;;;16.28;69.69;101706.94;5002896;28;20125;-63
2022/11/02 05:20:11;;;;;;;21.50;4.10;;;;;;;16.02;69.40;101701.38;4995960;28;20046;-63
2022/11/02 05:22:42;;;;;;;19.27;3.70;;;;;;;16.05;70.08;101703.50;4998585;28;20069;-63
2022/11/02 05:25:13;;;;;;;20.63;3.85;;;;;;;16.06;69.59;101705.13;5020898;28;20050;-63
2022/11/02 05:27:41;;;;;;;16.00;3.30;;;;;;;16.19;69.82;101703.34;5015638;28;20490;-63
2022/11/02 05:30:09;;;;;;;17.83;3.85;;;;;;;16.18;69.49;101710.06;5008498;28;20058;-62
2022/11/02 05:32:37;;;;;;;14.52;3.42;;;;;;;16.21;69.45;101709.38;5014343;28;20061;-62
2022/11/02 05:35:05;;;;;;;19.17;3.75;;;;;;;16.21;69.81;101707.44;5015561;28;20408;-62
2022/11/02 05:37:32;;;;;;;18.02;4.07;;;;;;;16.14;69.54;101715.44;4998748;28;20165;-62
2022/11/02 05:40:00;;;;;;;16.65;2.95;;;;;;;16.07;70.51;101714.28;4999640;28;20049;-63
2022/11/02 05:42:28;;;;;;;18.45;3.47;;;;;;;16.10;70.10;101730.31;5015362;28;20054;-62
2022/11/02 05:44:56;;;;;;;19.17;4.05;;;;;;;15.95;70.28;101730.78;4999172;28;20053;-63
2022/11/02 05:47:23;;;;;;;14.43;2.90;;;;;;;16.01;70.19;101730.28;5006380;28;20058;-63
2022/11/02 05:49:50;;;;;;;17.85;3.80;;;;;;;16.01;70.34;101721.13;5014901;28;20072;-64
2022/11/02 05:52:18;;;;;;;20.50;4.40;;;;;;;15.95;70.44;101734.41;4998318;28;20058;-63
2022/11/02 05:54:45;;;;;;;19.10;3.30;;;;;;;16.07;70.45;101730.97;5015212;28;20049;-63
2022/11/02 05:57:12;;;;;;;18.85;4.13;;;;;;;16.02;69.80;101734.72;5015948;28;20597;-63
2022/11/02 05:59:39;;;;;;;15.07;3.30;;;;;;;16.05;70.24;101736.84;5016254;28;20065;-62
2022/11/02 06:02:13;;;;;;;16.65;3.25;;;;;;;15.97;70.56;101732.06;4979951;28;20065;-62
2022/11/02 06:04:41;;;;;;;21.45;3.65;;;;;;;15.98;71.46;101735.69;4995790;28;20057;-62
2022/11/02 06:07:08;;;;;;;19.42;4.15;;;;;;;16.04;70.12;101726.06;5010511;28;20046;-62
2022/11/02 06:09:35;;;;;;;21.98;4.05;;;;;;;16.03;70.23;101727.19;5015101;28;20060;-62
2022/11/02 06:12:03;;;;;;;18.75;3.50;;;;;;;15.95;70.37;101728.00;4998021;28;20386;-63
2022/11/02 06:14:30;;;;;;;23.13;3.88;;;;;;;15.67;70.94;101731.03;5016069;28;20046;-63
2022/11/02 06:16:57;;;;;;;22.00;4.53;;;;;;;15.92;70.97;101729.47;5013066;28;20045;-63
2022/11/02 06:19:25;;;;;;;17.77;3.70;;;;;;;15.74;70.72;101731.38;5016137;28;20053;-62
2022/11/02 06:21:52;;;;;;;21.48;3.80;;;;;;;15.84;70.89;101726.66;5014347;28;20080;-65
2022/11/02 06:24:19;;;;;;;20.30;3.67;;;;;;;15.75;71.65;101732.22;4998635;28;20056;-63
2022/11/02 06:26:47;;;;;;;15.63;3.75;;;;;;;15.69;71.42;101742.66;5015779;28;20046;-63
2022/11/02 06:29:15;;;;;;;19.55;4.10;;;;;;;15.47;71.66;101751.09;5016027;28;20050;-63
2022/11/02 06:31:42;;;;;;;20.77;4.32;;;;;;;15.58;71.24;101759.94;5014100;28;20060;-62
2022/11/02 06:34:10;;;;;;;19.13;3.58;;;;;;;15.50;72.16;101764.31;5016035;28;20409;-63
2022/11/02 06:36:37;;;;;;;20.52;4.78;;;;;;;15.78;72.19;101759.34;5010485;28;20052;-69
2022/11/02 06:39:05;;;;;;;22.33;3.85;;;;;;;15.87;71.67;101765.75;4998228;28;20065;-62
2022/11/02 06:41:32;;;;;;;22.25;3.30;;;;;;;16.27;71.01;101772.84;4997764;28;20058;-63
2022/11/02 06:43:59;;;;;;;17.50;3.67;;;;;;;16.36;70.30;101770.88;5010259;28;20046;-69
2022/11/02 06:46:27;;;;;;;19.70;3.67;;;;;;;16.30;69.68;101763.03;5008190;28;20496;-70
2022/11/02 06:48:59;;;;;;;20.92;4.07;;;;;;;16.32;69.57;101761.56;5014417;28;20087;-70
2022/11/02 06:51:26;;;;;;;19.55;3.75;;;;;;;16.36;69.07;101765.31;5010221;28;20054;-68
2022/11/02 06:53:54;;;;;;;21.02;4.65;;;;;;;16.30;68.51;101768.59;4992414;28;20054;-68
2022/11/02 06:56:21;;;;;;;23.52;4.00;;;;;;;16.35;68.49;101766.44;4991935;28;20045;-70
2022/11/02 06:58:48;;;;;;;22.30;4.30;;;;;;;16.39;68.45;101783.31;4977600;28;20054;-68
2022/11/02 07:01:15;;;;;;;28.75;5.22;;;;;;;16.40;67.84;101790.50;4987781;28;20054;-68
2022/11/02 07:03:43;;;;;;;19.30;4.47;;;;;;;16.42;67.87;101786.25;5005385;28;20500;-71
2022/11/02 07:06:10;;;;;;;19.00;4.25;;;;;;;16.35;67.59;101791.47;5001135;28;20047;-69
2022/11/02 07:08:41;;;;;;;22.50;4.47;;;;;;;16.37;68.05;101791.97;4990856;28;20057;-68
2022/11/02 07:11:13;;;;;;;18.10;4.07;;;;;;;16.36;67.65;101792.31;4975440;28;20057;-70
2022/11/02 07:13:41;;;;;;;22.67;4.28;;;;;;;16.30;67.66;101786.06;4990299;28;20496;-71
2022/11/02 07:16:08;;;;;;;20.30;4.75;;;;;;;16.29;67.53;101795.56;4960507;28;20149;-70
2022/11/02 07:18:36;;;;;;;24.85;4.50;;;;;;;16.26;67.23;101782.34;4995171;28;20051;-71
2022/11/02 07:21:04;;;;;;;23.27;4.45;;;;;;;16.31;67.20;101781.34;4994820;28;20054;-73
2022/11/02 07:23:31;;;;;;;23.45;4.60;;;;;;;16.41;67.11;101790.19;4995434;28;20406;-69
2022/11/02 07:26:01;;;;;;;30.15;7.40;;;;;;;16.36;66.86;101786.75;4990801;28;20049;-69
2022/11/02 07:28:28;;;;;;;28.10;6.22;;;;;;;16.37;67.01;101786.41;4992417;28;20057;-68
2022/11/02 07:30:56;;;;;;;44.22;6.93;;;;;;;16.42;66.92;101789.03;4985425;28;20061;-70
2022/11/02 07:33:23;;;;;;;31.58;6.72;;;;;;;16.32;66.60;101796.91;4991749;28;20058;-70
2022/11/02 07:35:51;;;;;;;28.63;6.10;;;;;;;16.39;67.27;101792.47;4987411;28;20057;-72
2022/11/02 07:38:18;;;;;;;29.77;5.40;;;;;;;16.32;65.43;101799.69;4992504;28;20374;-72
2022/11/02 07:40:47;;;;;;;31.30;5.38;;;;;;;16.20;65.84;101805.03;4975566;28;20053;-70
2022/11/02 07:43:15;;;;;;;27.48;5.72;;;;;;;15.91;66.44;101800.09;4981444;28;20416;-70
2022/11/02 07:46:05;;;;;;;31.60;5.70;;;;;;;15.61;66.51;101806.50;4971437;28;20050;-71
2022/11/02 07:48:34;;;;;;;30.02;5.68;;;;;;;15.45;66.55;101806.13;4996014;28;20049;-71
2022/11/02 07:51:02;;;;;;;38.95;6.13;;;;;;;15.43;67.31;101810.38;4991815;28;20054;-72
2022/11/02 07:53:29;;;;;;;35.42;5.78;;;;;;;15.36;68.00;101802.44;5006579;28;20062;-71
2022/11/02 07:55:59;;;;;;;26.83;4.93;;;;;;;15.45;68.54;101803.34;4999996;28;20497;-71
2022/11/02 07:58:26;;;;;;;;;;;;;;;15.60;67.81;101807.66;4979935;28;20057;-70
2022/11/02 08:00:59;;;;;;;25.15;4.80;;;;;;;15.62;67.95;101799.84;4996975;28;19930;-71
2022/11/02 08:03:27;;;;;;;28.67;5.75;;;;;;;15.65;67.67;101800.00;4997999;28;20046;-70
2022/11/02 08:05:55;;;;;;;30.70;5.55;;;;;;;15.69;67.78;101808.53;4990649;28;20043;-71
2022/11/02 08:08:23;;;;;;;23.25;4.45;;;;;;;15.87;67.19;101804.63;4996880;28;20057;-70
2022/11/02 08:10:51;;;;;;;28.65;5.45;;;;;;;15.95;67.15;101805.81;4977090;28;20520;-70
2022/11/02 08:13:21;;;;;;;24.85;4.53;;;;;;;16.03;66.39;101796.66;4991241;28;20054;-71
2022/11/02 08:15:52;;;;;;;18.08;4.72;;;;;;;16.15;66.12;101808.81;4994339;28;20057;-71
2022/11/02 08:18:22;;;;;;;21.23;4.22;;;;;;;16.21;65.45;101809.47;4995571;28;20054;-71
2022/11/02 08:20:50;;;;;;;26.85;5.07;;;;;;;16.00;66.15;101809.28;4994078;28;20050;-71
2022/11/02 08:23:18;;;;;;;25.92;4.90;;;;;;;16.16;66.11;101806.84;4978808;28;20057;-70
2022/11/02 08:25:47;;;;;;;28.15;4.93;;;;;;;16.14;65.87;101804.41;4993296;28;20113;-72
2022/11/02 08:28:18;;;;;;;24.20;4.05;;;;;;;16.25;65.55;101807.69;4985051;28;21819;-70
2022/11/02 08:30:45;;;;;;;25.45;4.90;;;;;;;16.16;65.65;101815.97;4987782;28;20042;-71
2022/11/02 08:33:14;;;;;;;23.80;4.90;;;;;;;16.20;65.60;101808.63;5008595;28;20046;-70
2022/11/02 08:35:43;;;;;;;23.97;4.47;;;;;;;16.36;65.30;101820.13;4989268;28;20054;-71
2022/11/02 08:38:11;;;;;;;20.55;4.80;;;;;;;16.43;65.15;101820.44;4960513;28;20046;-72
2022/11/02 08:40:39;;;;;;;20.08;4.50;;;;;;;16.47;64.84;101813.97;4980731;28;20061;-72
2022/11/02 08:43:11;;;;;;;23.52;4.68;;;;;;;16.49;64.96;101819.97;4980263;28;20054;-70
2022/11/02 08:45:40;;;;;;;19.52;4.28;;;;;;;16.56;64.72;101825.88;4990504;28;20062;-71
2022/11/02 08:48:28;;;;;;;23.95;4.75;;;;;;;16.63;64.44;101828.19;4987202;28;20050;-71
2022/11/02 08:50:55;;;;;;;21.65;3.67;;;;;;;16.69;64.36;101824.09;4972611;28;20046;-72
2022/11/02 08:53:23;;;;;;;21.90;4.65;;;;;;;16.69;64.02;101816.56;4996200;28;20058;-71
2022/11/02 08:55:50;;;;;;;22.02;4.80;;;;;;;16.60;64.71;101810.19;5014958;28;20060;-70
2022/11/02 08:58:17;;;;;;;20.95;4.30;;;;;;;16.57;64.95;101821.97;5016516;28;20492;-71
2022/11/02 09:00:44;;;;;;;22.60;4.95;;;;;;;16.48;64.75;101823.91;5014205;28;20054;-72
2022/11/02 09:03:14;;;;;;;19.88;4.55;;;;;;;16.56;65.54;101825.09;5009260;28;20053;-71
2022/11/02 09:05:43;;;;;;;16.70;3.40;;;;;;;16.63;65.09;101828.19;5008011;28;20061;-70
2022/11/02 09:08:15;;;;;;;30.13;5.25;;;;;;;16.66;65.20;101819.19;5014008;28;20460;-72
2022/11/02 09:10:45;;;;;;;16.98;3.70;;;;;;;16.64;64.75;101815.91;5013541;28;20042;-71
2022/11/02 09:13:13;;;;;;;24.17;4.72;;;;;;;16.55;65.36;101829.00;4996326;28;20042;-72
2022/11/02 09:15:41;;;;;;;23.30;4.97;;;;;;;16.56;65.49;101819.53;4997924;28;20050;-72
2022/11/02 09:18:09;;;;;;;21.65;4.78;;;;;;;16.64;65.28;101830.66;5010932;28;20049;-72
2022/11/02 09:20:36;;;;;;;22.45;4.53;;;;;;;16.72;64.96;101815.06;5013373;28;20057;-72
2022/11/02 09:23:03;;;;;;;19.85;4.85;;;;;;;16.69;64.94;101813.78;4994848;28;20069;-72
2022/11/02 09:25:30;;;;;;;18.27;4.47;;;;;;;16.75;65.03;101806.09;5008752;28;20049;-73
2022/11/02 09:27:58;;;;;;;22.20;4.68;;;;;;;16.68;64.43;101805.78;5013326;28;20038;-72
2022/11/02 09:30:27;;;;;;;22.73;5.03;;;;;;;16.71;64.65;101805.94;5014062;28;20263;-71
2022/11/02 09:32:59;;;;;;;22.55;5.15;;;;;;;16.74;64.76;101807.22;5000963;28;20053;-71
2022/11/02 09:35:32;;;;;;;16.45;4.50;;;;;;;16.90;64.20;101811.16;4996195;28;20045;-71
2022/11/02 09:38:04;;;;;;;22.42;5.22;;;;;;;17.00;63.60;101804.44;4996175;28;20050;-71
2022/11/02 09:40:44;;;;;;;22.33;4.47;;;;;;;17.04;63.52;101803.44;5014500;28;20046;-70
2022/11/02 09:43:43;;;;;;;23.30;5.78;;;;;;;17.08;64.35;101809.16;4982036;28;20061;-72
2022/11/02 09:46:22;;;;;;;26.80;5.32;;;;;;;17.06;66.04;101801.13;4994316;28;20042;-70
2022/11/02 09:48:53;;;;;;;23.53;5.50;;;;;;;17.04;64.63;101803.44;5009739;28;20045;-71
2022/11/02 09:51:40;;;;;;;25.05;4.95;;;;;;;17.10;65.32;101801.28;4996054;28;20045;-71
2022/11/02 09:54:43;;;;;;;19.15;4.43;;;;;;;17.10;65.68;101801.28;5005734;28;20568;-72
2022/11/02 09:57:14;;;;;;;22.85;4.82;;;;;;;17.15;64.92;101801.94;4934811;29;20059;-70
2022/11/02 09:59:41;;;;;;;19.67;4.10;;;;;;;17.16;64.89;101800.78;4997908;28;20053;-72
2022/11/02 10:02:17;;;;;;;28.33;5.03;;;;;;;17.20;64.71;101795.38;4998918;28;20053;-71
2022/11/02 10:05:12;;;;;;;21.63;4.90;;;;;;;17.24;64.34;101801.91;5014649;28;20046;-63
2022/11/02 10:07:52;;;;;;;19.70;4.25;;;;;;;17.22;64.11;101799.47;5013847;28;20046;-63
2022/11/02 10:10:26;;;;;;;18.05;4.70;;;;;;;17.18;64.14;101800.44;5007999;28;20054;-64
2022/11/02 10:13:27;;;;;;;15.05;4.07;;;;;;;17.28;63.89;101809.25;4996213;28;20054;-64
2022/11/02 10:16:16;;;;;;;21.55;5.05;;;;;;;17.25;63.89;101803.53;5006820;28;20065;-64
2022/11/02 10:18:48;;;;;;;18.20;5.10;;;;;;;17.34;63.75;101805.16;4994512;28;20056;-63
2022/11/02 10:21:20;;;;;;;21.98;4.10;;;;;;;17.41;63.31;101807.44;5008823;28;20054;-62
2022/11/02 10:23:55;;;;;;;15.35;3.58;;;;;;;17.47;62.89;101801.38;5007058;28;20050;-63
2022/11/02 10:26:24;;;;;;;20.38;4.60;;;;;;;17.48;62.77;101804.97;4977802;28;20049;-63
2022/11/02 10:28:57;;;;;;;18.38;4.03;;;;;;;17.52;62.64;101801.19;5010218;28;20058;-63
2022/11/02 10:31:29;;;;;;;21.30;4.53;;;;;;;17.56;62.52;101795.75;4986043;28;20054;-63
2022/11/02 10:34:01;;;;;;;23.75;4.25;;;;;;;17.57;62.12;101802.97;5004790;28;20476;-64
2022/11/02 10:36:38;;;;;;;18.27;4.05;;;;;;;17.58;61.85;101808.22;5008249;28;20053;-64
2022/11/02 10:39:14;;;;;;;23.80;4.57;;;;;;;17.63;61.97;101807.19;5009975;28;20054;-64
2022/11/02 10:41:59;;;;;;;20.08;4.25;;;;;;;17.53;61.16;101797.25;5012979;28;20046;-65
2022/11/02 10:44:42;;;;;;;15.77;3.90;;;;;;;17.49;61.70;101803.81;4994490;28;20671;-63
2022/11/02 10:47:21;;;;;;;18.02;3.70;;;;;;;17.51;62.49;101812.66;5011365;28;20050;-64
2022/11/02 10:50:29;;;;;;;20.70;4.18;;;;;;;17.52;62.58;101795.59;5008131;28;20496;-64
2022/11/02 10:53:00;;;;;;;15.98;3.80;;;;;;;17.60;61.86;101794.78;5010381;28;20053;-65
2022/11/02 10:55:57;;;;;;;13.13;3.53;;;;;;;17.80;61.07;101794.00;5013843;28;20053;-63
2022/11/02 10:58:27;;;;;;;18.10;4.00;;;;;;;17.73;60.25;101796.50;5007659;28;20050;-66
2022/11/02 11:01:04;;;;;;;;;;;;;;;17.74;60.49;101789.78;4993630;28;20126;-64
2022/11/02 11:03:32;;;;;;;13.15;3.03;;;;;;;17.79;59.72;101792.38;5005991;28;19921;-64
2022/11/02 11:06:02;;;;;;;15.63;3.05;;;;;;;17.71;59.95;101789.66;5004603;28;20042;-65
2022/11/02 11:08:39;;;;;;;17.23;3.53;;;;;;;17.80;59.91;101782.06;4980511;28;20042;-64
2022/11/02 11:11:28;;;;;;;18.27;3.80;;;;;;;17.71;60.40;101784.06;5008594;28;20050;-65
2022/11/02 11:14:06;;;;;;;19.30;3.33;;;;;;;17.82;60.09;101788.91;5010645;28;20377;-64
2022/11/02 11:16:59;;;;;;;20.35;4.32;;;;;;;17.85;60.14;101782.66;5013213;28;20046;-64
2022/11/02 11:19:49;;;;;;;17.50;4.53;;;;;;;17.70;59.05;101774.06;4994663;28;20803;-63
2022/11/02 11:22:37;;;;;;;13.93;3.15;;;;;;;17.80;59.32;101770.91;5003272;28;20061;-63
2022/11/02 11:25:11;;;;;;;14.52;3.42;;;;;;;17.82;59.45;101766.63;5007151;28;20046;-63
2022/11/02 11:27:46;;;;;;;16.65;3.95;;;;;;;17.91;58.72;101764.59;5008367;28;20548;-64
2022/11/02 11:30:28;;;;;;;17.95;3.22;;;;;;;17.99;58.21;101766.50;4993449;28;20065;-67
2022/11/02 11:33:18;;;;;;;14.50;3.15;;;;;;;17.98;58.63;101764.06;5013576;28;20060;-65
2022/11/02 11:35:50;;;;;;;13.73;3.60;;;;;;;17.94;57.66;101765.88;5008784;28;20053;-64
2022/11/02 11:38:20;;;;;;;13.52;3.10;;;;;;;17.87;58.21;101754.44;4998148;28;20046;-64
2022/11/02 11:40:54;;;;;;;14.10;3.55;;;;;;;17.89;58.75;101752.16;5011014;28;20050;-64
2022/11/02 11:43:24;;;;;;;11.77;3.35;;;;;;;17.98;58.42;101748.16;5013960;28;20625;-64
2022/11/02 11:46:03;;;;;;;12.75;3.78;;;;;;;17.92;58.69;101741.13;5014108;28;20042;-64
2022/11/02 11:48:54;;;;;;;16.50;3.60;;;;;;;17.95;58.48;101742.44;5015927;28;20046;-64
2022/11/02 11:51:30;;;;;;;15.80;3.70;;;;;;;18.03;58.60;101737.97;5011982;28;20061;-64
2022/11/02 11:54:27;;;;;;;22.05;5.57;;;;;;;17.80;58.54;101740.25;4991117;28;20410;-64
2022/11/02 11:56:56;;;;;;;16.10;3.90;;;;;;;17.82;59.33;101733.16;4997803;28;20047;-64